sensor_id;sensor_type;location;lat;lon;timestamp;P1;P2;P0
68341;PMS7003;55668;52.310;21.066;2023-10-13T00:09:39;6;6;
68341;PMS7003;55668;52.310;21.066;2023-10-13T00:25:14;7;5;
68341;PMS7003;55668;52.310;21.066;2023-10-13T00:40:48;5;5;
68341;PMS7003;55668;52.310;21.066;2023-10-13T00:55:55;7;7;
68341;PMS7003;55668;52.310;21.066;2023-10-13T01:11:19;5;5;
68341;PMS7003;55668;52.310;21.066;2023-10-13T01:26:41;6;6;
68341;PMS7003;55668;52.310;21.066;2023-10-13T01:42:11;6;6;
68341;PMS7003;55668;52.310;21.066;2023-10-13T01:57:12;5;5;
68341;PMS7003;55668;52.310;21.066;2023-10-13T02:12:48;5;5;
68341;PMS7003;55668;52.310;21.066;2023-10-13T02:29:11;7;6;
68341;PMS7003;55668;52.310;21.066;2023-10-13T02:43:43;6;6;
68341;PMS7003;55668;52.310;21.066;2023-10-13T02:59:16;6;6;
68341;PMS7003;55668;52.310;21.066;2023-10-13T03:14:40;8;8;
68341;PMS7003;55668;52.310;21.066;2023-10-13T03:45:00;8;8;
68341;PMS7003;55668;52.310;21.066;2023-10-13T04:00:13;12;12;
68341;PMS7003;55668;52.310;21.066;2023-10-13T04:46:10;11;11;
68341;PMS7003;55668;52.310;21.066;2023-10-13T05:01:53;12;12;
68341;PMS7003;55668;52.310;21.066;2023-10-13T05:32:22;15;15;
68341;PMS7003;55668;52.310;21.066;2023-10-13T05:48:13;12;12;
68341;PMS7003;55668;52.310;21.066;2023-10-13T06:04:45;10;9;
68341;PMS7003;55668;52.310;21.066;2023-10-13T06:18:37;18;17;
68341;PMS7003;55668;52.310;21.066;2023-10-13T07:04:40;16;15;
68341;PMS7003;55668;52.310;21.066;2023-10-13T07:13:29;17;15;
68341;PMS7003;55668;52.310;21.066;2023-10-13T07:23:03;13;13;
68341;PMS7003;55668;52.310;21.066;2023-10-13T07:27:38;14;14;
68341;PMS7003;55668;52.310;21.066;2023-10-13T07:36:42;12;12;
68341;PMS7003;55668;52.310;21.066;2023-10-13T07:51:12;12;12;
68341;PMS7003;55668;52.310;21.066;2023-10-13T08:06:03;11;11;
68341;PMS7003;55668;52.310;21.066;2023-10-13T08:21:32;10;10;
68341;PMS7003;55668;52.310;21.066;2023-10-13T09:23:14;11;8;
68341;PMS7003;55668;52.310;21.066;2023-10-13T09:38:17;10;10;
68341;PMS7003;55668;52.310;21.066;2023-10-13T10:24:23;13;13;
68341;PMS7003;55668;52.310;21.066;2023-10-13T10:39:45;11;10;
68341;PMS7003;55668;52.310;21.066;2023-10-13T11:11:49;12;12;
68341;PMS7003;55668;52.310;21.066;2023-10-13T11:26:51;14;14;
68341;PMS7003;55668;52.310;21.066;2023-10-13T11:42:02;11;11;
68341;PMS7003;55668;52.310;21.066;2023-10-13T11:56:49;12;12;
68341;PMS7003;55668;52.310;21.066;2023-10-13T12:13:01;13;13;
68341;PMS7003;55668;52.310;21.066;2023-10-13T12:27:31;13;13;
68341;PMS7003;55668;52.310;21.066;2023-10-13T13:13:42;11;11;
68341;PMS7003;55668;52.310;21.066;2023-10-13T13:29:08;10;10;
68341;PMS7003;55668;52.310;21.066;2023-10-13T13:59:58;11;11;
68341;PMS7003;55668;52.310;21.066;2023-10-13T14:15:47;8;8;
68341;PMS7003;55668;52.310;21.066;2023-10-13T14:46:00;9;9;
68341;PMS7003;55668;52.310;21.066;2023-10-13T15:01:53;9;9;
68341;PMS7003;55668;52.310;21.066;2023-10-13T15:16:33;11;11;
68341;PMS7003;55668;52.310;21.066;2023-10-13T15:47:42;32;30;
68341;PMS7003;55668;52.310;21.066;2023-10-13T16:03:25;30;27;
68341;PMS7003;55668;52.310;21.066;2023-10-13T16:33:38;28;28;
68341;PMS7003;55668;52.310;21.066;2023-10-13T16:49:23;24;24;
68341;PMS7003;55668;52.310;21.066;2023-10-13T17:53:33;23;23;
68341;PMS7003;55668;52.310;21.066;2023-10-13T18:06:33;21;21;
68341;PMS7003;55668;52.310;21.066;2023-10-13T18:22:09;22;22;
68341;PMS7003;55668;52.310;21.066;2023-10-13T18:36:35;24;24;
68341;PMS7003;55668;52.310;21.066;2023-10-13T18:52:31;23;22;
68341;PMS7003;55668;52.310;21.066;2023-10-13T19:07:35;20;20;
68341;PMS7003;55668;52.310;21.066;2023-10-13T19:22:57;22;22;
68341;PMS7003;55668;52.310;21.066;2023-10-13T21:26:17;19;19;
68341;PMS7003;55668;52.310;21.066;2023-10-13T22:42:38;19;18;
68341;PMS7003;55668;52.310;21.066;2023-10-13T22:58:46;18;18;
